メインページ
METAR-TAF:

METAR-TAF

空港 :

パゴパゴ国際空港

パゴパゴ, 合衆国領有小離島

緯度: 14-20S, 経度: 170-43W, 海抜: 3m

現時点の気象観測

当レポートは36分前の03:50(UTC)に作成
変向風 5kt
気温 29°C
湿度 79%
気圧 1009 hPa
視程: 19.3km
高度1500ftの雲はほとんどない
高度10000ftの千切れ雲あり
高度20000ftの千切れ雲あり

METAR: NSTU 250350Z VRB05KT 12SM FEW015 BKN100 BKN200 29/25 A2979 RMK SLP090 T02930251

時間: 17:26 (04:26 UTC)

予報

当レポートは4時間51分前の23:35(UTC)に作成
予報は25日の 00時(UTC)から 25日の 24時(UTC)まで有効
の風 8kt
視程: 10km
高度2000ftの雲はほとんどない
高度4000ftの雲は散在している
高度10000ftの千切れ雲あり
近辺でにわか雨,

TAF: NSTU 242335Z 2500/2524 09008KT P6SM VCSH FEW020 SCT040 BKN100

4,000以上の空港の気象観測と天気予報(METAR報とTAF報)

利用可能な観測所は地図上に黄色い丸と赤い丸で示す。

丸の上にカーソルを重ねると観測所名を参照できる。

次にクリックすると気象観測と天気予報を参照できる。

マップの切り替え:黒色「×」印の緑ボタンをクリックして拡大、「-」印の緑ボタンをクリックして縮小、緑色の三角印をクリックして隣りの地図に切り替え


METAR-TAF: